Time;durP1;ratioP1;P1;durP2;ratioP2;P2;SDS_P1;SDS_P2;PMS_P1;PMS_P2;Temp;Humidity;BMP_temperature;BMP_pressure;BME280_temperature;BME280_humidity;BME280_pressure;Samples;Min_cycle;Max_cycle;Signal;HPM_P1;HPM_P2
2023/08/10 00:01:39;;;;;;;5.07;2.50;;;;;;;22.85;48.52;98998.59;5093836;28;20176;-86
2023/08/10 00:04:05;;;;;;;11.87;5.00;;;;;;;22.93;49.41;98995.94;5093736;28;20647;-87
2023/08/10 00:06:30;;;;;;;13.10;6.83;;;;;;;22.88;49.60;99006.28;5094105;28;20168;-86
2023/08/10 00:08:56;;;;;;;14.97;8.40;;;;;;;22.86;49.95;99010.13;5093863;28;20176;-87
2023/08/10 00:11:21;;;;;;;20.07;8.27;;;;;;;22.94;50.62;99012.81;5093818;28;20172;-86
2023/08/10 00:13:47;;;;;;;13.97;6.70;;;;;;;22.89;50.10;99004.44;5093792;28;20232;-86
2023/08/10 00:16:12;;;;;;;9.83;5.47;;;;;;;22.86;50.71;99004.78;5092744;28;20176;-86
2023/08/10 00:18:39;;;;;;;7.23;4.10;;;;;;;22.83;51.10;98995.25;5092708;28;20183;-86
2023/08/10 00:21:05;;;;;;;5.30;2.83;;;;;;;22.88;51.61;99000.94;5093442;28;20184;-86
2023/08/10 00:23:31;;;;;;;4.20;1.60;;;;;;;22.89;52.19;98985.75;5093670;28;20184;-86
2023/08/10 00:25:57;;;;;;;4.67;0.97;;;;;;;22.81;52.51;98985.72;5094601;28;20235;-86
2023/08/10 00:28:23;;;;;;;1.07;0.60;;;;;;;22.77;52.78;98982.53;5093037;28;20591;-86
2023/08/10 00:30:48;;;;;;;2.00;0.70;;;;;;;22.76;52.78;98985.34;5093347;28;20193;-86
2023/08/10 00:33:14;;;;;;;0.80;0.50;;;;;;;22.78;52.69;98981.53;5093517;28;20631;-86
2023/08/10 00:35:39;;;;;;;1.27;0.60;;;;;;;22.78;53.07;98978.00;5093475;28;20188;-86
2023/08/10 00:38:05;;;;;;;1.37;0.67;;;;;;;22.79;53.20;98971.69;5093751;28;20180;-86
2023/08/10 00:40:31;;;;;;;1.37;0.50;;;;;;;22.79;53.00;98977.88;5093403;28;20172;-86
2023/08/10 00:42:58;;;;;;;2.97;0.40;;;;;;;22.55;54.27;98970.56;5093397;28;20168;-86
2023/08/10 00:45:24;;;;;;;1.90;0.70;;;;;;;22.61;53.54;98967.22;5085380;28;20250;-86
2023/08/10 00:47:52;;;;;;;1.23;0.50;;;;;;;22.68;52.90;98962.13;5073070;28;20173;-86
2023/08/10 00:50:17;;;;;;;1.80;0.77;;;;;;;22.66;53.09;98965.94;5073118;28;20288;-85
2023/08/10 00:52:43;;;;;;;2.13;0.77;;;;;;;22.66;53.60;98966.78;5073115;28;20668;-86
2023/08/10 00:55:08;;;;;;;2.60;1.17;;;;;;;22.57;53.69;98965.88;5090034;28;20199;-86
2023/08/10 00:57:34;;;;;;;2.00;0.80;;;;;;;22.55;53.89;98967.03;5093777;28;20191;-87
2023/08/10 01:00:00;;;;;;;5.73;1.40;;;;;;;22.49;54.41;98965.84;5093168;28;20183;-87
2023/08/10 01:02:25;;;;;;;3.20;1.50;;;;;;;22.50;54.37;98959.50;5093114;28;20187;-87
2023/08/10 01:04:51;;;;;;;1.83;0.90;;;;;;;22.45;53.69;98967.16;5092363;28;20208;-86
2023/08/10 01:07:32;;;;;;;2.53;1.20;;;;;;;22.33;51.80;98954.22;5092109;28;20176;-87
2023/08/10 01:10:18;;;;;;;2.97;0.80;;;;;;;22.31;51.51;98946.38;5095332;28;20196;-86
2023/08/10 01:12:51;;;;;;;1.93;0.90;;;;;;;22.31;51.57;98948.22;5097403;28;20593;-86
2023/08/10 01:15:24;;;;;;;2.63;0.97;;;;;;;22.33;51.94;98954.22;5097232;28;20184;-86
2023/08/10 01:17:56;;;;;;;2.33;1.33;;;;;;;22.32;52.15;98957.91;5096210;28;20168;-86
2023/08/10 01:20:23;;;;;;;2.77;0.77;;;;;;;22.32;51.93;98974.78;5096031;28;20540;-86
2023/08/10 01:23:02;;;;;;;2.23;0.77;;;;;;;22.28;51.27;98976.06;5097030;28;20173;-86
2023/08/10 01:25:28;;;;;;;1.67;0.70;;;;;;;22.22;51.19;98974.03;5095781;28;20291;-86
2023/08/10 01:27:54;;;;;;;1.83;0.87;;;;;;;22.20;51.03;98969.84;5096769;28;20215;-86
2023/08/10 01:30:20;;;;;;;2.30;0.97;;;;;;;22.14;51.50;98966.00;5096901;28;20211;-86
2023/08/10 01:32:46;;;;;;;2.40;1.20;;;;;;;22.08;51.74;98966.63;5096820;28;20176;-86
2023/08/10 01:35:12;;;;;;;1.80;0.83;;;;;;;22.06;51.83;98965.09;5095982;28;20237;-86
2023/08/10 01:37:39;;;;;;;1.23;0.70;;;;;;;21.95;51.77;98979.53;5097014;28;20633;-86
2023/08/10 01:40:12;;;;;;;1.63;0.60;;;;;;;21.89;51.80;98977.50;5095761;28;20325;-86
2023/08/10 01:42:37;;;;;;;2.43;0.90;;;;;;;21.76;51.74;98977.88;5096287;28;20176;-86
2023/08/10 01:45:04;;;;;;;2.17;0.80;;;;;;;21.58;51.79;98969.06;5095589;28;20667;-86
2023/08/10 01:47:44;;;;;;;1.57;0.90;;;;;;;21.42;52.09;98952.91;5096266;28;20195;-86
2023/08/10 01:50:10;;;;;;;4.43;1.10;;;;;;;21.36;52.18;98937.50;5096866;28;20247;-86
2023/08/10 01:52:48;;;;;;;4.43;1.53;;;;;;;21.35;53.00;98944.69;5095490;28;20211;-86
2023/08/10 01:55:15;;;;;;;1.90;1.20;;;;;;;21.39;52.71;98948.72;5096992;28;20170;-86
2023/08/10 01:57:41;;;;;;;6.40;1.00;;;;;;;21.48;52.63;98951.44;5095375;28;20192;-86
2023/08/10 02:00:07;;;;;;;2.07;0.97;;;;;;;21.45;52.48;98947.25;5096397;28;20237;-86
2023/08/10 02:02:33;;;;;;;1.93;1.00;;;;;;;21.39;52.38;98940.72;5095332;28;20212;-86
2023/08/10 02:04:58;;;;;;;2.67;1.10;;;;;;;21.42;51.79;98942.22;5096120;28;20680;-86
2023/08/10 02:07:25;;;;;;;7.17;1.00;;;;;;;21.42;51.15;98948.41;5096631;28;20176;-86
2023/08/10 02:09:50;;;;;;;2.10;0.93;;;;;;;21.39;50.74;98947.88;5096016;28;20507;-86
2023/08/10 02:12:16;;;;;;;2.80;1.10;;;;;;;21.33;51.21;98945.84;5096001;28;20194;-85
2023/08/10 02:14:41;;;;;;;2.87;1.13;;;;;;;21.35;51.02;98952.69;5094978;28;20653;-86
2023/08/10 02:17:07;;;;;;;2.50;0.87;;;;;;;21.37;50.71;98950.69;5095051;28;20172;-85
2023/08/10 02:19:32;;;;;;;4.23;1.20;;;;;;;21.34;50.36;98953.66;5095589;28;20460;-86
2023/08/10 02:21:58;;;;;;;2.40;0.90;;;;;;;21.31;50.34;98959.31;5095226;28;20240;-85
2023/08/10 02:24:23;;;;;;;6.30;1.60;;;;;;;21.24;51.24;98952.91;5095640;28;20180;-86
2023/08/10 02:26:49;;;;;;;3.00;1.27;;;;;;;21.11;52.00;98952.44;5095532;28;20188;-86
2023/08/10 02:29:14;;;;;;;2.57;1.40;;;;;;;20.98;52.44;98956.44;5096075;28;20243;-86
2023/08/10 02:31:39;;;;;;;3.67;1.03;;;;;;;20.93;52.30;98951.56;5095559;28;20227;-86
2023/08/10 02:34:05;;;;;;;5.23;1.77;;;;;;;20.93;52.35;98951.56;5096181;28;20176;-86
2023/08/10 02:36:30;;;;;;;3.87;1.20;;;;;;;20.94;52.41;98953.22;5095843;28;20203;-86
2023/08/10 02:38:56;;;;;;;3.17;1.30;;;;;;;20.89;52.99;98952.00;5095583;28;20177;-86
2023/08/10 02:41:21;;;;;;;2.13;0.93;;;;;;;20.89;53.54;98954.66;5095520;28;20172;-87
2023/08/10 02:43:46;;;;;;;2.80;1.03;;;;;;;20.88;54.13;98958.31;5095324;28;20184;-87
2023/08/10 02:46:12;;;;;;;3.73;1.90;;;;;;;20.84;54.50;98973.75;5095664;28;20277;-87
2023/08/10 02:48:37;;;;;;;3.07;1.33;;;;;;;20.82;54.59;98975.75;5095937;28;20266;-87
2023/08/10 02:51:03;;;;;;;3.87;1.20;;;;;;;20.85;54.36;98978.13;5086165;28;20191;-87
2023/08/10 02:53:28;;;;;;;2.00;1.03;;;;;;;20.87;54.45;98977.94;5075024;28;20519;-87
2023/08/10 02:55:55;;;;;;;3.20;1.13;;;;;;;20.95;53.96;98976.22;5077012;28;20203;-87
2023/08/10 02:58:22;;;;;;;2.60;1.67;;;;;;;20.94;54.05;98979.88;5089782;28;20191;-87
2023/08/10 03:00:49;;;;;;;2.37;1.10;;;;;;;20.90;54.88;98986.50;5094891;28;20568;-87
2023/08/10 03:03:15;;;;;;;3.80;1.10;;;;;;;20.86;54.84;98982.44;5081295;28;20196;-87
2023/08/10 03:05:42;;;;;;;1.40;0.90;;;;;;;20.79;55.29;98981.38;5093963;28;20208;-87
2023/08/10 03:08:08;;;;;;;2.07;0.80;;;;;;;20.74;55.56;98976.50;5094014;28;20561;-87
2023/08/10 03:10:34;;;;;;;3.07;0.97;;;;;;;20.79;55.28;98974.22;5079285;28;20185;-87
2023/08/10 03:13:04;;;;;;;2.13;0.97;;;;;;;20.84;54.99;98968.44;5074583;28;20187;-88
2023/08/10 03:15:31;;;;;;;1.40;0.90;;;;;;;20.91;54.85;98958.84;5074870;28;20251;-88
2023/08/10 03:17:58;;;;;;;1.17;0.77;;;;;;;20.94;54.91;98960.41;5086335;28;20192;-88
2023/08/10 03:20:25;;;;;;;6.40;1.10;;;;;;;20.90;55.14;98962.50;5094821;28;20241;-86
2023/08/10 03:22:52;;;;;;;3.90;0.90;;;;;;;20.92;55.65;98970.34;5094842;28;20245;-86
2023/08/10 03:25:18;;;;;;;0.90;0.50;;;;;;;20.94;55.65;98973.72;5094528;28;20220;-87
2023/08/10 03:27:45;;;;;;;2.90;1.10;;;;;;;20.95;55.42;98976.22;5075005;28;20242;-87
2023/08/10 03:30:11;;;;;;;1.60;0.90;;;;;;;20.95;55.54;98967.38;5074449;28;20268;-87
2023/08/10 03:32:38;;;;;;;4.53;1.17;;;;;;;20.95;55.74;98975.38;5074063;28;20184;-87
2023/08/10 03:35:05;;;;;;;2.07;0.73;;;;;;;20.93;56.25;98972.03;5074321;28;20180;-87
2023/08/10 03:37:32;;;;;;;1.60;0.80;;;;;;;20.92;56.20;98967.69;5074195;28;20173;-86
2023/08/10 03:39:59;;;;;;;2.20;1.10;;;;;;;20.94;56.47;98957.75;5086137;28;20245;-87
2023/08/10 03:42:26;;;;;;;2.10;0.80;;;;;;;20.98;56.28;98953.75;5093427;28;20617;-87
2023/08/10 03:44:55;;;;;;;1.83;0.80;;;;;;;21.00;56.62;98957.13;5094359;28;20203;-87
2023/08/10 03:47:22;;;;;;;1.63;1.10;;;;;;;21.00;56.62;98957.97;5094263;28;20190;-87
2023/08/10 03:49:49;;;;;;;2.03;0.80;;;;;;;20.98;57.36;98965.28;5093309;28;20180;-87
2023/08/10 03:52:16;;;;;;;2.57;1.00;;;;;;;21.00;57.57;98951.78;5093329;28;20180;-87
2023/08/10 03:54:42;;;;;;;3.67;1.00;;;;;;;21.03;57.44;98952.34;5094141;28;20179;-87
2023/08/10 03:57:09;;;;;;;1.40;0.80;;;;;;;21.03;57.79;98947.00;5092249;28;20211;-87
2023/08/10 03:59:36;;;;;;;1.83;0.80;;;;;;;21.11;57.62;98947.13;5093908;28;20245;-87
2023/08/10 04:02:03;;;;;;;1.73;0.80;;;;;;;21.20;57.20;98956.03;5094054;28;20172;-87
2023/08/10 04:04:29;;;;;;;2.67;0.90;;;;;;;21.26;56.62;98958.91;5093876;28;20660;-87
2023/08/10 04:06:56;;;;;;;1.57;0.73;;;;;;;21.28;55.98;98962.28;5093836;28;20237;-87
2023/08/10 04:09:22;;;;;;;2.20;1.07;;;;;;;21.22;55.96;98965.56;5093834;28;20177;-87
2023/08/10 04:11:50;;;;;;;1.87;0.80;;;;;;;21.22;55.92;98957.56;5094020;28;20609;-87
2023/08/10 04:14:17;;;;;;;1.80;0.90;;;;;;;21.23;55.91;98961.03;5093776;28;20188;-87
2023/08/10 04:16:45;;;;;;;2.70;0.87;;;;;;;21.23;56.54;98958.38;5093808;28;20611;-87
2023/08/10 04:19:11;;;;;;;2.57;1.10;;;;;;;21.25;56.64;98961.75;5092771;28;20543;-87
2023/08/10 04:21:39;;;;;;;4.37;0.90;;;;;;;21.30;56.16;98967.47;5093899;28;20176;-87
2023/08/10 04:24:05;;;;;;;2.10;0.70;;;;;;;21.30;56.30;98981.59;5093874;28;20253;-87
2023/08/10 04:26:32;;;;;;;1.97;0.80;;;;;;;21.29;56.63;98979.09;5092544;28;20214;-87
2023/08/10 04:28:59;;;;;;;4.33;1.37;;;;;;;21.25;56.75;98981.22;5093474;28;20229;-88
2023/08/10 04:31:25;;;;;;;3.40;1.57;;;;;;;21.25;56.65;98981.22;5093808;28;20176;-87
2023/08/10 04:33:52;;;;;;;3.27;1.13;;;;;;;21.26;56.96;98980.25;5093390;28;20187;-87
2023/08/10 04:36:21;;;;;;;3.23;1.40;;;;;;;21.27;56.20;98979.28;5093282;28;20245;-87
2023/08/10 04:38:47;;;;;;;5.63;1.47;;;;;;;21.33;56.15;98980.50;5088294;28;20280;-87
2023/08/10 04:41:14;;;;;;;4.07;1.20;;;;;;;21.40;55.93;98976.22;5093439;28;20191;-87
2023/08/10 04:43:40;;;;;;;2.87;1.20;;;;;;;21.41;56.14;98980.53;5092881;28;20559;-87
2023/08/10 04:46:07;;;;;;;1.90;1.07;;;;;;;21.41;56.44;98984.06;5093665;28;20204;-87
2023/08/10 04:48:34;;;;;;;4.40;1.50;;;;;;;21.38;56.82;98979.03;5077770;28;20189;-87
2023/08/10 04:51:01;;;;;;;3.17;1.53;;;;;;;21.44;56.80;98983.75;5073078;28;20172;-87
2023/08/10 04:53:29;;;;;;;3.07;1.00;;;;;;;21.47;56.41;98982.63;5072945;28;20208;-86
2023/08/10 04:55:55;;;;;;;1.97;1.10;;;;;;;21.53;56.14;98986.50;5072381;28;20181;-87
2023/08/10 04:58:22;;;;;;;1.83;0.90;;;;;;;21.57;56.56;98987.84;5072003;28;20249;-87
2023/08/10 05:00:52;;;;;;;3.23;1.20;;;;;;;21.63;56.49;98997.91;5073115;28;20177;-88
2023/08/10 05:03:22;;;;;;;3.90;1.00;;;;;;;21.66;56.43;98987.78;5071883;28;20173;-88
2023/08/10 05:05:49;;;;;;;1.97;1.30;;;;;;;21.75;56.84;99000.19;5073138;28;20609;-88
2023/08/10 05:08:16;;;;;;;2.53;0.83;;;;;;;21.85;56.99;98997.44;5087659;28;20172;-88
2023/08/10 05:10:45;;;;;;;2.37;0.93;;;;;;;21.96;57.09;98997.22;5080906;28;20271;-87
2023/08/10 05:13:11;;;;;;;3.30;1.33;;;;;;;22.13;57.04;98991.00;5091109;28;20210;-87
2023/08/10 05:15:37;;;;;;;5.20;1.30;;;;;;;22.41;56.81;98987.16;5092190;28;20184;-87
2023/08/10 05:18:05;;;;;;;4.87;1.80;;;;;;;22.62;56.59;98992.09;5087230;28;20184;-88
2023/08/10 05:20:33;;;;;;;2.87;1.00;;;;;;;22.79;56.96;98985.03;5085823;28;20176;-90
2023/08/10 05:22:59;;;;;;;3.10;1.10;;;;;;;23.11;56.92;98980.63;5093156;28;20176;-91
2023/08/10 05:25:26;;;;;;;2.30;1.07;;;;;;;23.44;56.66;98980.72;5075737;28;20232;-90
2023/08/10 05:27:52;;;;;;;3.87;1.10;;;;;;;23.79;56.24;98975.88;5072845;28;20315;-91
2023/08/10 05:30:19;;;;;;;5.00;1.17;;;;;;;23.70;56.94;98973.38;5075687;28;20261;-90
2023/08/10 05:32:46;;;;;;;2.70;1.30;;;;;;;23.66;57.58;98972.84;5091217;28;20633;-91
2023/08/10 05:35:14;;;;;;;2.97;1.00;;;;;;;23.90;57.48;98974.69;5093179;28;20164;-91
2023/08/10 05:37:41;;;;;;;6.03;1.47;;;;;;;23.89;58.41;98978.41;5093383;28;20179;-91
2023/08/10 05:40:10;;;;;;;2.20;1.03;;;;;;;24.19;58.48;98969.66;5093312;28;20176;-91
2023/08/10 05:42:41;;;;;;;1.67;0.80;;;;;;;24.22;58.31;98972.00;5085903;28;20211;-91
2023/08/10 05:45:09;;;;;;;1.97;1.13;;;;;;;24.48;57.75;98970.91;5091991;28;20232;-91
2023/08/10 05:47:36;;;;;;;2.03;0.97;;;;;;;24.57;57.31;98970.75;5093050;28;20169;-92
2023/08/10 05:50:03;;;;;;;2.10;1.07;;;;;;;24.59;56.89;98968.72;5093162;28;20180;-92
2023/08/10 05:52:30;;;;;;;3.63;1.07;;;;;;;24.68;56.54;98974.88;5092188;28;20180;-91
2023/08/10 05:54:57;;;;;;;2.70;1.30;;;;;;;24.75;56.49;98976.69;5094638;28;20213;-87
2023/08/10 05:57:23;;;;;;;3.67;1.30;;;;;;;24.59;56.87;98976.75;5080317;28;20188;-87
2023/08/10 05:59:50;;;;;;;6.97;1.77;;;;;;;24.32;56.70;98985.19;5088156;28;20188;-87
2023/08/10 06:02:16;;;;;;;2.53;1.43;;;;;;;24.26;57.63;98981.38;5081393;28;20215;-87
2023/08/10 06:04:42;;;;;;;7.57;2.20;;;;;;;24.36;57.47;98982.03;5077477;28;20205;-87
2023/08/10 06:07:08;;;;;;;5.87;2.80;;;;;;;24.42;56.97;98980.50;5073035;28;20640;-87
2023/08/10 06:09:33;;;;;;;5.17;2.50;;;;;;;24.40;57.45;98986.03;5077584;28;20190;-86
2023/08/10 06:11:59;;;;;;;5.67;3.00;;;;;;;24.45;57.20;98975.63;5094185;28;20184;-86
2023/08/10 06:14:25;;;;;;;4.50;2.27;;;;;;;24.51;57.18;98965.22;5094744;28;20254;-87
2023/08/10 06:16:50;;;;;;;11.47;3.77;;;;;;;24.78;55.71;98964.78;5094015;28;20329;-87
2023/08/10 06:19:15;;;;;;;8.30;3.10;;;;;;;;;;5093154;28;20525;-86
2023/08/10 06:21:41;;;;;;;7.67;2.80;;;;;;;25.10;54.47;98961.97;5093031;28;20184;-87
2023/08/10 06:24:09;;;;;;;10.73;2.40;;;;;;;25.14;54.75;98967.81;5094014;28;20176;-87
2023/08/10 06:26:35;;;;;;;7.43;2.20;;;;;;;25.27;54.45;98960.00;5092938;28;20715;-86
2023/08/10 06:29:02;;;;;;;5.40;2.30;;;;;;;25.49;53.48;98964.59;5093734;28;20180;-87
2023/08/10 06:31:28;;;;;;;5.17;2.40;;;;;;;25.61;52.84;98979.25;5093773;28;20180;-87
2023/08/10 06:33:53;;;;;;;5.83;2.03;;;;;;;25.26;53.23;98987.88;5093527;28;20180;-87
2023/08/10 06:36:19;;;;;;;5.00;2.20;;;;;;;25.24;54.27;98987.19;5095713;28;20191;-87
2023/08/10 06:38:44;;;;;;;6.23;1.87;;;;;;;25.28;54.03;98984.00;5095573;28;20172;-87
2023/08/10 06:41:09;;;;;;;7.50;1.70;;;;;;;25.13;54.81;98980.38;5094855;28;20180;-87
2023/08/10 06:43:35;;;;;;;5.50;1.93;;;;;;;25.17;54.82;98986.22;5096213;28;20519;-87
2023/08/10 06:46:00;;;;;;;3.17;1.30;;;;;;;25.27;53.97;98989.53;5095752;28;20295;-87
2023/08/10 06:48:35;;;;;;;5.90;2.10;;;;;;;25.32;53.96;98985.28;5095639;28;20267;-90
2023/08/10 06:51:00;;;;;;;6.50;2.00;;;;;;;25.35;55.53;98994.84;5095565;28;20155;-87
2023/08/10 06:53:27;;;;;;;3.83;1.50;;;;;;;25.63;53.72;98991.47;5095434;28;20176;-88
2023/08/10 06:55:52;;;;;;;5.13;1.83;;;;;;;25.86;52.98;98994.16;5095416;28;20180;-88
2023/08/10 06:58:18;;;;;;;8.77;1.60;;;;;;;25.76;53.08;98990.06;5095071;28;20177;-88
2023/08/10 07:00:44;;;;;;;4.90;1.70;;;;;;;26.13;52.69;98984.69;5095538;28;20204;-88
2023/08/10 07:03:10;;;;;;;6.70;1.80;;;;;;;26.41;52.56;98983.06;5095615;28;20255;-88
2023/08/10 07:05:41;;;;;;;6.27;1.63;;;;;;;26.54;50.71;98972.50;5094409;28;20307;-88
2023/08/10 07:08:09;;;;;;;3.97;1.43;;;;;;;26.68;49.69;98963.59;5094690;28;20260;-89
2023/08/10 07:10:46;;;;;;;4.30;1.37;;;;;;;26.91;48.36;98968.88;5095891;28;20172;-88
2023/08/10 07:13:12;;;;;;;3.30;1.30;;;;;;;27.17;48.18;98979.97;5094356;28;20222;-89
2023/08/10 07:15:37;;;;;;;4.77;1.13;;;;;;;27.09;48.28;98977.38;5094879;28;20263;-87
2023/08/10 07:18:06;;;;;;;1.90;0.80;;;;;;;27.53;46.10;98981.81;5095402;28;20181;-88
2023/08/10 07:20:33;;;;;;;3.80;0.90;;;;;;;27.66;46.87;98987.31;5095397;28;20577;-88
2023/08/10 07:23:03;;;;;;;4.10;1.00;;;;;;;27.79;44.90;98988.28;5093900;28;20188;-88
2023/08/10 07:25:36;;;;;;;4.07;1.00;;;;;;;27.85;42.33;99000.16;5093987;28;20196;-90
2023/08/10 07:28:02;;;;;;;2.13;0.70;;;;;;;28.17;42.24;98991.50;5094841;28;20264;-89
2023/08/10 07:30:28;;;;;;;3.53;0.57;;;;;;;28.47;42.97;98994.84;5093985;28;20181;-88
2023/08/10 07:32:54;;;;;;;1.63;0.70;;;;;;;28.57;41.66;98996.16;5095251;28;20179;-89
2023/08/10 07:35:21;;;;;;;3.37;1.10;;;;;;;28.82;42.06;98984.91;5094493;28;20176;-90
2023/08/10 07:37:48;;;;;;;1.95;0.85;;;;;;;29.12;41.35;98984.41;5094834;28;20180;-89
2023/08/10 07:40:14;;;;;;;3.70;0.95;;;;;;;29.53;37.08;98989.75;5094481;28;20310;-89
2023/08/10 07:42:39;;;;;;;1.73;0.50;;;;;;;29.62;34.50;98985.81;5093520;28;20626;-90
2023/08/10 07:45:06;;;;;;;1.42;0.40;;;;;;;29.62;33.80;98985.81;5093837;28;20201;-88
2023/08/10 07:47:31;;;;;;;1.55;0.68;;;;;;;29.38;36.93;98980.97;5094682;28;20691;-88
2023/08/10 07:50:00;;;;;;;2.13;0.50;;;;;;;29.50;36.08;98978.53;5094615;28;20180;-88
2023/08/10 07:52:28;;;;;;;3.13;0.50;;;;;;;30.07;34.45;98986.06;5094610;28;20629;-89
2023/08/10 07:54:54;;;;;;;1.35;0.65;;;;;;;30.25;34.27;98980.84;5093561;28;20172;-88
2023/08/10 07:57:19;;;;;;;2.28;0.45;;;;;;;30.06;36.06;98987.94;5093613;28;20185;-88
2023/08/10 07:59:45;;;;;;;2.15;0.70;;;;;;;30.32;35.37;98981.69;5095004;28;20175;-88
2023/08/10 08:02:11;;;;;;;1.45;0.50;;;;;;;30.41;35.94;98986.69;5093362;28;20223;-88
2023/08/10 08:04:36;;;;;;;1.02;0.43;;;;;;;30.25;35.98;98991.66;5094313;28;20249;-87
2023/08/10 08:07:05;;;;;;;1.45;0.60;;;;;;;30.29;36.01;98987.53;5094325;28;20184;-88
2023/08/10 08:09:33;;;;;;;1.55;0.50;;;;;;;30.46;35.61;98988.75;5093351;28;20208;-88
2023/08/10 08:11:58;;;;;;;1.50;0.35;;;;;;;29.68;35.46;98990.41;5094064;28;20180;-88
2023/08/10 08:14:24;;;;;;;1.48;0.40;;;;;;;29.64;36.07;98983.72;5093531;28;20571;-87
2023/08/10 08:16:49;;;;;;;0.80;0.38;;;;;;;29.70;35.03;98985.59;5094172;28;20233;-87
2023/08/10 08:19:17;;;;;;;1.02;0.50;;;;;;;30.00;35.90;98982.53;5093223;28;20187;-89
2023/08/10 08:21:46;;;;;;;1.67;0.60;;;;;;;30.01;34.57;98985.03;5094651;28;20187;-88
2023/08/10 08:24:12;;;;;;;1.50;0.52;;;;;;;29.42;33.95;98986.81;5093396;28;20281;-89
2023/08/10 08:26:38;;;;;;;1.60;0.50;;;;;;;29.22;34.92;98978.63;5092914;28;20331;-87
2023/08/10 08:29:06;;;;;;;0.55;0.30;;;;;;;29.73;33.93;98977.09;5094003;28;20246;-88
2023/08/10 08:31:32;;;;;;;2.85;0.30;;;;;;;29.83;33.88;98980.25;5093017;28;20622;-88
2023/08/10 08:33:58;;;;;;;0.88;0.40;;;;;;;29.76;33.46;98978.56;5094179;28;20601;-87
2023/08/10 08:36:24;;;;;;;1.05;0.30;;;;;;;29.77;33.78;98972.09;5094117;28;20511;-88
2023/08/10 08:38:49;;;;;;;3.30;0.30;;;;;;;29.78;33.50;98982.75;5093915;28;20199;-88
2023/08/10 08:41:18;;;;;;;0.68;0.30;;;;;;;30.09;32.52;98973.16;5092873;28;20172;-86
2023/08/10 08:43:45;;;;;;;0.43;0.22;;;;;;;30.17;32.37;98972.94;5093365;28;20565;-87
2023/08/10 08:46:15;;;;;;;1.13;0.40;;;;;;;30.34;32.43;98972.31;5093959;28;20200;-86
2023/08/10 08:48:41;;;;;;;0.93;0.47;;;;;;;30.07;33.29;98978.78;5091986;28;20169;-86
2023/08/10 08:51:07;;;;;;;2.10;0.47;;;;;;;30.11;32.32;98976.50;5079013;28;20199;-86
2023/08/10 08:53:34;;;;;;;0.70;0.40;;;;;;;30.28;32.00;98972.31;5076411;28;20267;-86
2023/08/10 08:56:01;;;;;;;1.48;0.55;;;;;;;30.36;32.68;98978.38;5091859;28;20241;-86
2023/08/10 08:58:27;;;;;;;0.93;0.40;;;;;;;29.48;33.11;98975.19;5082676;28;20188;-87
2023/08/10 09:00:54;;;;;;;1.20;0.47;;;;;;;29.91;33.17;98972.97;5075798;28;20267;-86
2023/08/10 09:03:23;;;;;;;5.75;0.63;;;;;;;30.01;32.65;98985.03;5075600;28;20185;-86
2023/08/10 09:05:50;;;;;;;1.02;0.43;;;;;;;30.13;33.23;98967.16;5092373;28;20200;-88
2023/08/10 09:08:21;;;;;;;2.67;0.47;;;;;;;29.78;31.84;98963.81;5092359;28;20207;-88
2023/08/10 09:10:48;;;;;;;1.02;0.55;;;;;;;30.07;31.87;98962.56;5089375;28;20751;-87
2023/08/10 09:13:17;;;;;;;2.03;0.50;;;;;;;30.13;32.37;98945.53;5079976;28;20177;-86
2023/08/10 09:15:45;;;;;;;0.82;0.30;;;;;;;30.30;32.88;98951.31;5071341;28;20280;-87
2023/08/10 09:18:11;;;;;;;0.77;0.40;;;;;;;30.10;33.01;98948.63;5072712;28;20553;-87
2023/08/10 09:20:38;;;;;;;1.80;0.50;;;;;;;30.00;32.80;98950.94;5072391;28;20660;-85
2023/08/10 09:23:05;;;;;;;1.95;0.40;;;;;;;30.47;31.52;98946.31;5072194;28;20175;-85
2023/08/10 09:25:37;;;;;;;0.90;0.45;;;;;;;30.75;32.56;98949.53;5087797;28;20629;-84
2023/08/10 09:28:08;;;;;;;1.17;0.40;;;;;;;30.96;32.35;98952.00;5092361;28;20665;-85
2023/08/10 09:30:35;;;;;;;1.95;0.65;;;;;;;30.89;31.40;98956.59;5076436;28;20185;-87
2023/08/10 09:33:00;;;;;;;2.78;0.60;;;;;;;30.56;32.04;98955.84;5075183;28;20258;-87
2023/08/10 09:35:29;;;;;;;1.55;0.50;;;;;;;29.77;32.94;98962.13;5091945;28;20629;-86
2023/08/10 09:38:01;;;;;;;2.33;0.68;;;;;;;30.21;32.74;98955.28;5083504;28;20548;-85
2023/08/10 09:40:29;;;;;;;1.67;0.60;;;;;;;29.94;33.06;98957.16;5077467;28;20191;-86
2023/08/10 09:42:55;;;;;;;2.40;0.73;;;;;;;29.89;34.11;98953.44;5088745;28;20184;-85
2023/08/10 09:45:22;;;;;;;1.20;0.50;;;;;;;29.85;33.88;98944.91;5095865;28;20204;-85
2023/08/10 09:47:49;;;;;;;1.27;0.50;;;;;;;29.91;34.03;98949.47;5087502;28;20298;-86
2023/08/10 09:50:16;;;;;;;2.85;1.20;;;;;;;29.52;34.47;98947.56;5075748;28;20204;-86
2023/08/10 09:52:43;;;;;;;1.65;0.80;;;;;;;29.91;34.17;98945.94;5078116;28;20189;-85
2023/08/10 09:55:13;;;;;;;2.33;0.70;;;;;;;29.95;33.74;98944.50;5086966;28;20241;-85
2023/08/10 09:57:44;;;;;;;5.47;1.02;;;;;;;29.23;34.08;98937.13;5087445;28;20191;-86
2023/08/10 10:00:18;;;;;;;1.30;0.60;;;;;;;29.22;34.98;98930.03;5094807;28;20199;-85
2023/08/10 10:02:46;;;;;;;2.70;0.77;;;;;;;29.43;35.64;98929.88;5094027;28;20180;-86
2023/08/10 10:05:16;;;;;;;2.42;0.70;;;;;;;29.36;35.79;98926.34;5082116;28;20224;-85
2023/08/10 10:07:44;;;;;;;6.50;1.02;;;;;;;29.40;36.60;98929.47;5088527;28;20188;-85
2023/08/10 10:10:12;;;;;;;1.90;0.77;;;;;;;29.42;36.48;98932.78;5085165;28;20257;-85
2023/08/10 10:12:40;;;;;;;4.82;1.02;;;;;;;28.81;37.21;98937.38;5094916;28;20649;-86
2023/08/10 10:15:07;;;;;;;0.90;0.50;;;;;;;29.01;37.60;98936.41;5089966;28;20188;-86
2023/08/10 10:17:33;;;;;;;3.42;0.85;;;;;;;29.08;37.56;98944.53;5092268;28;20245;-86
2023/08/10 10:20:01;;;;;;;2.35;0.98;;;;;;;28.87;37.57;98944.66;5085953;28;20180;-86
2023/08/10 10:22:27;;;;;;;1.77;0.60;;;;;;;27.82;39.17;98952.03;5094863;28;20208;-86
2023/08/10 10:24:56;;;;;;;2.13;0.70;;;;;;;27.74;38.60;98944.09;5085440;28;20201;-87
2023/08/10 10:27:38;;;;;;;2.40;0.70;;;;;;;28.11;38.53;98951.88;5074125;28;20542;-85
2023/08/10 10:30:14;;;;;;;1.08;0.60;;;;;;;28.34;38.53;98954.31;5082434;28;20245;-85
2023/08/10 10:32:47;;;;;;;2.80;0.80;;;;;;;27.65;38.32;98953.31;5090398;28;20184;-87
2023/08/10 10:35:31;;;;;;;1.67;0.68;;;;;;;28.12;38.48;98950.84;5085752;28;20175;-87
2023/08/10 10:37:59;;;;;;;3.58;0.80;;;;;;;28.27;37.70;98948.06;5087028;28;20185;-87
2023/08/10 10:40:27;;;;;;;1.10;0.60;;;;;;;28.50;36.85;98930.56;5090335;28;20618;-86
2023/08/10 10:43:06;;;;;;;1.67;0.63;;;;;;;28.69;37.13;98933.59;5085168;28;20622;-86
2023/08/10 10:45:42;;;;;;;1.77;0.70;;;;;;;28.90;36.53;98928.91;5074855;28;20280;-86
2023/08/10 10:48:13;;;;;;;1.50;0.70;;;;;;;29.48;36.10;98929.28;5074244;28;20192;-87
2023/08/10 10:50:40;;;;;;;1.45;0.60;;;;;;;29.93;35.38;98928.47;5073820;28;20266;-86
2023/08/10 10:53:12;;;;;;;1.30;0.40;;;;;;;29.73;36.21;98938.44;5073798;28;20271;-87
2023/08/10 10:55:46;;;;;;;1.75;0.60;;;;;;;30.16;34.93;98938.88;5074608;28;20173;-87
2023/08/10 10:58:14;;;;;;;2.05;0.70;;;;;;;30.08;35.27;98936.38;5074781;28;20188;-87
2023/08/10 11:00:43;;;;;;;0.93;0.60;;;;;;;29.99;35.71;98937.63;5074430;28;20184;-88
2023/08/10 11:03:13;;;;;;;3.33;0.65;;;;;;;29.46;35.70;98948.38;5076172;28;20208;-87
2023/08/10 11:05:39;;;;;;;2.60;0.88;;;;;;;29.42;35.82;98940.91;5093545;28;20227;-86
2023/08/10 11:08:06;;;;;;;1.77;0.70;;;;;;;29.57;35.80;98942.38;5094419;28;20272;-87
2023/08/10 11:10:40;;;;;;;2.40;0.90;;;;;;;29.41;35.96;98937.34;5094723;28;20636;-88
2023/08/10 11:13:08;;;;;;;3.03;0.70;;;;;;;29.20;36.38;98934.78;5087177;28;20242;-87
2023/08/10 11:15:38;;;;;;;1.48;0.55;;;;;;;29.69;36.02;98937.19;5074244;28;20173;-88
2023/08/10 11:18:12;;;;;;;3.90;0.82;;;;;;;29.77;35.71;98940.50;5074342;28;20256;-86
2023/08/10 11:20:48;;;;;;;1.20;0.65;;;;;;;30.33;35.84;98940.91;5073024;28;20184;-88
2023/08/10 11:24:06;;;;;;;1.33;0.55;;;;;;;30.46;35.53;98936.53;5079667;28;20184;-86
2023/08/10 13:05:18;;;;;;;1.52;0.80;;;;;;;27.64;40.50;98951.69;5556651;23;20237;-87
2023/08/10 13:07:45;;;;;;;1.60;0.73;;;;;;;27.81;40.79;98951.19;4845575;29;20271;-89
2023/08/10 13:10:15;;;;;;;1.02;0.50;;;;;;;27.65;40.11;98953.31;4829311;29;20184;-88
2023/08/10 13:12:45;;;;;;;0.63;0.30;;;;;;;27.29;39.97;98953.38;4845786;29;20226;-89
2023/08/10 13:15:12;;;;;;;1.15;0.63;;;;;;;27.60;40.36;98961.16;4845784;29;20232;-88